Redding, CT

5:50 AM EDT on March 29, 2015 (GMT -0400)
Redding/Georgetown | | Change Station
CLOSE
Current Station
Personal Weather Station
Location: Redding, CT
Elevation: 548 ft
Nearby Weather Stations
Active Advisory: Special Statement

Elev 548 ft 41.28 °N, 73.42 °W | Updated 6 seconds ago

Overcast
Overcast
21.5 °F
Feels Like 22 °F
N
0.0
Wind Variable Wind from North
Gusts 2.0 mph

Today
High -- | Low -- °F
--% Chance of Precip.
Yesterday
High -- | Low -- °F
Precip. -- in
6:42 AM 7:15 PM
Waxing Gibbous, 70% visible
Pressure 30.16 in
Visibility 10.0 miles
Clouds Overcast 8000 ft
Windchill 22 °F
Dew Point 7 °F
Humidity 52%
Rainfall 0.00 in
Snow Depth Not available.
UV 0 out of 12
Pollen 3.60 out of 12
Air Quality Not available.
Flu Activity Not available.
METAR KDXR 290853Z AUTO 34007KT 10SM OVC080 M05/M16 A3014 RMK AO2 SLP212 T10501161 53010 PWINO FZRANO

More Conditions Fewer Conditions

Pressure 30.16 in
Visibility 10.0 miles
Clouds Overcast 8000 ft
Windchill 22 °F
Dew Point 7 °F
Humidity 52%
Rainfall 0.00 in
Snow Depth Not available.
UV 0 out of 12
Pollen 3.60 out of 12
Air Quality Not available.
Flu Activity Not available.
METAR KDXR 290853Z AUTO 34007KT 10SM OVC080 M05/M16 A3014 RMK AO2 SLP212 T10501161 53010 PWINO FZRANO

More Conditions Fewer Conditions

10-Day Weather Forecast

Almanac

Astronomy

Mar. 29, 2015 Rise Set
Actual Time
Civil Twilight
Nautical Twilight
Astronomical Twilight
Moon
Length of Visible Light
Length of Day
Tomorrow will be .
, % of the Moon is Illuminated

Today's Extremes

State Highs State Lows

Community

WunderPhotos

Upload Photos

1,809,199 photos uploaded!

WunderBlogs® & News

Nearby

Air Quality

  Air Quality AQ Index Pollutant
Not available.

Snow Depth

Station Depth Elevation

Earthquake Activity

City Distance Mag. Time & Date
Minimum magnitude displayed is 2.5.

Coastal Water Temperatures

Place Temperature

Stations

Nearby Weather Stations

Station Location Temp. Windchill Dew Point Humidity Wind Precip. Elev Updated Type
                   
Special Statement
Statement as of 2:56 AM EDT on March 29, 2015

Light snow has ended with some light snow across areas of western
Suffolk County. Temperatures will remain in the mid 20s into early
this morning... rising above freezing around midday. Expect snow to
remain on untreated surface... with patchy black ice on surface
where melting occurred earlier and refroze... into Sunday
morning. Please exercise caution when traveling.